Time;durP1;ratioP1;P1;durP2;ratioP2;P2;SDS_P1;SDS_P2;PMS_P1;PMS_P2;Temp;Humidity;BMP_temperature;BMP_pressure;BME280_temperature;BME280_humidity;BME280_pressure;Samples;Min_cycle;Max_cycle;Signal;HPM_P1;HPM_P2
2021/12/31 00:01:50;;;;;;;2.55;2.45;;;;;;;12.38;100.00;101874.88;5240696;28;20051;-85
2021/12/31 00:04:20;;;;;;;4.15;2.83;;;;;;;12.32;100.00;101879.34;5240199;28;20052;-84
2021/12/31 00:06:51;;;;;;;3.58;2.35;;;;;;;12.20;100.00;101837.13;5238877;28;20090;-83
2021/12/31 00:09:21;;;;;;;3.03;2.92;;;;;;;12.38;100.00;101883.00;5256299;22;20049;-86
2021/12/31 00:11:52;;;;;;;3.88;2.85;;;;;;;12.02;100.00;101814.63;5210452;28;20026;-86
2021/12/31 00:14:22;;;;;;;8.50;3.63;;;;;;;11.90;100.00;101805.72;5210020;28;20127;-86
2021/12/31 00:16:53;;;;;;;3.75;3.45;;;;;;;12.41;100.00;101882.50;5210697;28;20040;-86
2021/12/31 00:19:25;;;;;;;4.82;2.75;;;;;;;11.92;100.00;101809.00;5211660;28;20553;-85
2021/12/31 00:21:57;;;;;;;5.50;3.53;;;;;;;11.65;100.00;101770.00;5211393;28;20021;-86
2021/12/31 00:24:27;;;;;;;3.15;2.25;;;;;;;12.04;100.00;101822.50;5211107;28;20033;-86
2021/12/31 00:26:58;;;;;;;3.53;2.65;;;;;;;12.27;100.00;101857.59;5211144;28;20021;-86
2021/12/31 00:29:28;;;;;;;4.70;3.58;;;;;;;11.89;100.00;101805.97;5210191;28;20053;-86
2021/12/31 00:31:59;;;;;;;3.88;3.67;;;;;;;11.72;100.00;101774.22;5209700;28;20479;-86
2021/12/31 00:34:29;;;;;;;3.40;3.20;;;;;;;12.32;100.00;101871.22;5225908;28;20060;-86
2021/12/31 00:36:59;;;;;;;2.60;2.40;;;;;;;12.11;100.00;101834.00;5211005;28;20025;-86
2021/12/31 00:39:30;;;;;;;3.58;3.22;;;;;;;12.00;100.00;101810.50;5210661;28;20036;-86
2021/12/31 00:42:00;;;;;;;3.60;3.00;;;;;;;11.97;100.00;101835.34;5226142;28;20026;-86
2021/12/31 00:44:31;;;;;;;3.15;3.03;;;;;;;11.74;100.00;101791.06;5212237;28;20036;-85
2021/12/31 00:47:01;;;;;;;3.10;2.90;;;;;;;11.90;100.00;101811.13;5216967;28;20021;-85
2021/12/31 00:49:31;;;;;;;2.65;2.30;;;;;;;12.14;100.00;101864.13;5218797;28;20458;-86
2021/12/31 00:52:02;;;;;;;5.55;2.90;;;;;;;11.79;100.00;101822.84;5219877;28;20036;-85
2021/12/31 00:54:33;;;;;;;3.25;2.95;;;;;;;11.93;100.00;101839.59;5219573;28;20036;-86
2021/12/31 00:57:05;;;;;;;5.93;2.75;;;;;;;12.24;100.00;101890.56;5219661;28;20045;-85
2021/12/31 00:59:36;;;;;;;4.00;3.05;;;;;;;12.23;100.00;101885.41;5218721;28;20029;-86
2021/12/31 01:02:07;;;;;;;7.85;2.70;;;;;;;11.03;100.00;101686.84;5218848;28;20084;-86
2021/12/31 01:04:38;;;;;;;3.05;2.72;;;;;;;11.17;100.00;101733.38;5218557;28;20032;-86
2021/12/31 01:07:08;;;;;;;2.85;2.15;;;;;;;11.45;100.00;101770.44;5221501;28;20025;-85
2021/12/31 01:09:38;;;;;;;2.42;2.30;;;;;;;11.56;100.00;101774.16;5221140;28;20061;-84
2021/12/31 01:12:11;;;;;;;3.35;3.00;;;;;;;11.61;100.00;101812.13;5218695;28;20022;-86
2021/12/31 01:15:06;;;;;;;2.92;2.83;;;;;;;11.68;100.00;101802.00;5221101;28;20028;-85
2021/12/31 01:17:50;;;;;;;5.55;3.80;;;;;;;12.16;100.00;101864.69;5219418;28;20036;-84
2021/12/31 01:20:21;;;;;;;2.70;2.50;;;;;;;11.81;100.00;101818.84;5212650;28;20045;-87
2021/12/31 01:22:52;;;;;;;3.10;2.72;;;;;;;11.64;100.00;101768.38;5218996;28;20025;-87
2021/12/31 01:25:22;;;;;;;4.97;4.43;;;;;;;11.77;100.00;101801.44;5208050;28;20118;-87
2021/12/31 01:27:52;;;;;;;6.93;2.67;;;;;;;11.96;100.00;101825.59;5210020;28;20028;-87
2021/12/31 01:30:23;;;;;;;4.03;3.53;;;;;;;11.86;100.00;101812.66;5214010;28;20487;-87
2021/12/31 01:32:55;;;;;;;2.92;2.72;;;;;;;11.66;100.00;101779.78;5235928;28;20029;-84
2021/12/31 01:35:26;;;;;;;4.18;3.80;;;;;;;11.82;100.00;101817.78;5220877;28;20052;-85
2021/12/31 01:37:56;;;;;;;3.25;3.03;;;;;;;12.16;100.00;101858.47;5219952;28;20029;-86
2021/12/31 01:40:26;;;;;;;3.40;3.20;;;;;;;11.47;100.00;101774.56;5215293;28;20426;-85
2021/12/31 01:42:57;;;;;;;3.75;2.97;;;;;;;12.01;100.00;101840.06;5220369;28;20036;-85
2021/12/31 01:45:32;;;;;;;6.40;3.00;;;;;;;11.81;100.00;101826.13;5215842;28;20391;-87
2021/12/31 01:48:21;;;;;;;4.63;3.05;;;;;;;11.49;100.00;101758.09;5216936;28;20025;-86
2021/12/31 01:50:52;;;;;;;5.90;3.35;;;;;;;11.45;100.00;101770.44;5219938;28;20029;-85
2021/12/31 01:53:23;;;;;;;6.85;2.97;;;;;;;12.07;100.00;101847.22;5219513;28;20017;-87
2021/12/31 01:55:59;;;;;;;2.88;2.70;;;;;;;12.18;100.00;101856.34;5218112;28;20488;-87
2021/12/31 01:58:30;;;;;;;13.20;4.80;;;;;;;11.77;100.00;101827.66;5227382;28;20067;-87
2021/12/31 02:01:04;;;;;;;4.80;4.38;;;;;;;12.14;100.00;101863.28;5225051;28;20025;-87
2021/12/31 02:03:34;;;;;;;6.07;3.15;;;;;;;11.48;100.00;101765.38;5209144;28;20410;-88
2021/12/31 02:06:05;;;;;;;3.90;3.60;;;;;;;12.14;100.00;101877.66;5212129;28;20036;-87
2021/12/31 02:08:36;;;;;;;5.15;3.28;;;;;;;11.60;100.00;101775.31;5219982;28;20049;-86
2021/12/31 02:11:06;;;;;;;3.78;3.20;;;;;;;11.57;100.00;101781.22;5214607;28;20017;-86
2021/12/31 02:13:37;;;;;;;3.30;2.60;;;;;;;11.63;100.00;101793.78;5219821;28;20075;-85
2021/12/31 02:16:09;;;;;;;4.03;2.50;;;;;;;11.95;100.00;101845.59;5219281;28;20077;-87
2021/12/31 02:18:42;;;;;;;5.80;2.92;;;;;;;12.02;100.00;101852.53;5220680;28;20048;-86
2021/12/31 02:21:13;;;;;;;3.97;3.67;;;;;;;11.75;100.00;101817.06;5220594;28;20045;-86
2021/12/31 02:23:46;;;;;;;2.45;2.35;;;;;;;11.45;100.00;101778.56;5221806;28;20096;-86
2021/12/31 02:26:17;;;;;;;2.65;2.55;;;;;;;12.11;100.00;101870.03;5219013;28;20071;-86
2021/12/31 02:28:47;;;;;;;4.85;3.50;;;;;;;12.09;100.00;101857.81;5220859;28;20499;-86
2021/12/31 02:31:18;;;;;;;3.75;3.55;;;;;;;11.66;100.00;101790.59;5217906;28;20029;-87
2021/12/31 02:33:49;;;;;;;4.00;2.80;;;;;;;11.80;100.00;101827.19;5216430;28;20060;-87
2021/12/31 02:36:19;;;;;;;4.00;3.47;;;;;;;12.12;100.00;101857.31;5217778;28;20029;-83
2021/12/31 02:38:50;;;;;;;5.90;3.53;;;;;;;12.09;100.00;101853.22;5217338;28;20025;-86
2021/12/31 02:41:20;;;;;;;4.22;2.40;;;;;;;11.58;100.00;101778.28;5231445;28;20025;-86
2021/12/31 02:43:51;;;;;;;8.85;3.72;;;;;;;11.71;100.00;101798.81;5217082;28;20017;-87
2021/12/31 02:46:21;;;;;;;7.82;3.80;;;;;;;11.66;100.00;101801.44;5216011;28;20029;-86
2021/12/31 02:48:56;;;;;;;3.75;3.38;;;;;;;11.99;100.00;101853.00;5216628;28;20021;-86
2021/12/31 02:51:28;;;;;;;3.28;2.97;;;;;;;11.97;100.00;101857.84;5221441;28;20017;-85
2021/12/31 02:54:05;;;;;;;7.47;4.10;;;;;;;11.98;100.00;101855.94;5224015;28;20032;-87
2021/12/31 02:56:36;;;;;;;3.33;3.05;;;;;;;11.78;100.00;101813.06;5222358;28;20080;-87
2021/12/31 02:59:08;;;;;;;3.13;2.90;;;;;;;11.34;100.00;101768.56;5238428;28;20052;-85
2021/12/31 03:01:40;;;;;;;3.22;2.90;;;;;;;11.89;100.00;101860.91;5222492;28;20017;-86
2021/12/31 03:04:12;;;;;;;4.00;3.70;;;;;;;11.92;100.00;101841.50;5215427;28;20044;-88
2021/12/31 03:06:43;;;;;;;7.82;3.45;;;;;;;11.54;100.00;101776.31;5217629;28;20116;-86
2021/12/31 03:09:16;;;;;;;4.40;3.95;;;;;;;11.93;100.00;101840.44;5217061;28;20496;-87
2021/12/31 03:11:46;;;;;;;3.67;3.45;;;;;;;11.97;100.00;101852.41;5215644;28;20505;-87
2021/12/31 03:14:19;;;;;;;3.42;3.13;;;;;;;11.69;100.00;101814.47;5220756;28;20053;-87
2021/12/31 03:16:49;;;;;;;4.10;3.28;;;;;;;11.12;100.00;101744.06;5221777;28;20033;-86
2021/12/31 03:19:21;;;;;;;5.22;4.30;;;;;;;11.74;100.00;101841.66;5231500;28;20483;-85
2021/12/31 03:21:51;;;;;;;6.03;3.58;;;;;;;11.66;100.00;101839.31;5214612;28;20029;-84
2021/12/31 03:24:22;;;;;;;4.32;4.03;;;;;;;10.98;100.00;101731.84;5229805;28;20048;-85
2021/12/31 03:26:53;;;;;;;6.07;4.38;;;;;;;10.86;100.00;101733.75;5214464;28;20085;-85
2021/12/31 03:29:23;;;;;;;8.40;4.50;;;;;;;11.25;100.00;101787.06;5213923;28;20029;-86
2021/12/31 03:31:53;;;;;;;8.45;4.22;;;;;;;10.93;100.00;101723.66;5213629;28;20026;-86
2021/12/31 03:34:24;;;;;;;3.28;3.08;;;;;;;11.47;100.00;101811.59;5213927;28;20021;-86
2021/12/31 03:36:55;;;;;;;4.22;3.92;;;;;;;11.29;100.00;101782.81;5229479;28;20027;-84
2021/12/31 03:39:25;;;;;;;8.80;3.95;;;;;;;11.64;100.00;101841.41;5212582;28;20022;-85
2021/12/31 03:41:56;;;;;;;6.15;4.38;;;;;;;10.90;100.00;101718.72;5213702;28;20029;-85
2021/12/31 03:44:26;;;;;;;5.25;4.75;;;;;;;11.16;100.00;101756.06;5215162;28;20156;-87
2021/12/31 03:46:56;;;;;;;4.55;4.35;;;;;;;11.17;100.00;101757.69;5213008;28;20388;-86
2021/12/31 03:49:27;;;;;;;5.78;5.30;;;;;;;11.67;100.00;101835.53;5219432;28;20360;-86
2021/12/31 03:51:57;;;;;;;3.92;3.72;;;;;;;11.15;100.00;101746.28;5219698;28;20021;-85
2021/12/31 03:54:28;;;;;;;5.10;4.18;;;;;;;11.39;100.00;101809.25;5211018;28;20021;-85
2021/12/31 03:56:58;;;;;;;4.70;4.40;;;;;;;10.89;100.00;101719.78;5212769;28;20021;-86
2021/12/31 03:59:28;;;;;;;4.47;3.95;;;;;;;11.56;100.00;101826.38;5212434;28;20568;-87
2021/12/31 04:01:59;;;;;;;5.07;4.63;;;;;;;11.38;100.00;101813.84;5212330;28;20471;-86
2021/12/31 04:04:30;;;;;;;4.47;4.20;;;;;;;10.95;100.00;101772.88;5211634;28;20025;-87
2021/12/31 04:07:00;;;;;;;5.53;4.95;;;;;;;11.30;100.00;101829.59;5212422;28;20495;-86
2021/12/31 04:09:31;;;;;;;7.63;4.32;;;;;;;11.11;100.00;101815.41;5212129;28;20029;-87
2021/12/31 04:12:01;;;;;;;4.63;4.28;;;;;;;11.07;100.00;101811.53;5212969;28;20021;-87
2021/12/31 04:14:32;;;;;;;5.85;4.65;;;;;;;11.25;100.00;101832.22;5211824;28;20108;-86
2021/12/31 04:17:02;;;;;;;5.47;4.90;;;;;;;11.07;100.00;101811.53;5212353;28;20024;-86
2021/12/31 04:19:32;;;;;;;3.83;3.63;;;;;;;10.78;100.00;101770.88;5210883;28;20033;-86
2021/12/31 04:22:04;;;;;;;3.85;3.55;;;;;;;11.18;100.00;101848.56;5212413;28;20021;-85
2021/12/31 04:27:13;;;;;;;4.63;4.28;;;;;;;10.92;100.00;101824.69;5211843;28;20029;-85
2021/12/31 04:29:50;;;;;;;10.43;5.03;;;;;;;10.48;100.00;101765.56;5211625;28;20399;-86
2021/12/31 04:32:23;;;;;;;4.25;3.90;;;;;;;10.80;100.00;101840.91;5210658;28;20041;-86
2021/12/31 04:34:54;;;;;;;4.30;4.00;;;;;;;10.37;100.00;101823.09;5210866;28;20080;-85
2021/12/31 04:37:24;;;;;;;5.05;4.28;;;;;;;10.35;100.00;101809.00;5212093;28;20029;-85
2021/12/31 04:39:54;;;;;;;4.47;4.18;;;;;;;9.95;100.00;101767.44;5210333;28;20089;-86
2021/12/31 04:42:25;;;;;;;5.32;4.68;;;;;;;9.57;100.00;101714.63;5211980;28;20479;-86
2021/12/31 04:44:57;;;;;;;5.03;4.63;;;;;;;10.16;100.00;101827.09;5227102;28;20104;-86
2021/12/31 04:47:27;;;;;;;5.13;4.68;;;;;;;9.83;100.00;101776.28;5210832;28;20025;-86
2021/12/31 04:49:58;;;;;;;7.80;5.18;;;;;;;10.08;100.00;101840.94;5211120;28;20443;-87
2021/12/31 04:52:28;;;;;;;3.63;3.33;;;;;;;9.49;100.00;101736.53;5211364;28;20059;-86
2021/12/31 04:54:59;;;;;;;6.15;5.57;;;;;;;10.08;100.00;101834.72;5211282;28;20056;-87
2021/12/31 04:57:29;;;;;;;8.65;5.47;;;;;;;9.94;100.00;101825.13;5210338;28;20029;-85
2021/12/31 04:59:59;;;;;;;9.40;4.40;;;;;;;9.17;100.00;101722.41;5211786;28;20036;-86
2021/12/31 05:02:30;;;;;;;6.68;6.18;;;;;;;9.37;100.00;101741.84;5211422;28;20075;-87
2021/12/31 05:05:01;;;;;;;7.55;5.63;;;;;;;9.48;100.00;101784.22;5211341;28;20497;-86
2021/12/31 05:07:32;;;;;;;6.03;4.70;;;;;;;9.80;100.00;101832.59;5211524;28;20542;-85
2021/12/31 05:10:03;;;;;;;7.05;4.88;;;;;;;9.73;100.00;101848.03;5210741;28;20029;-86
2021/12/31 05:12:37;;;;;;;7.80;5.82;;;;;;;9.64;100.00;101827.81;5211134;28;20051;-85
2021/12/31 05:15:10;;;;;;;5.78;4.45;;;;;;;9.61;100.00;101836.34;5209644;28;20056;-86
2021/12/31 05:17:40;;;;;;;7.28;5.70;;;;;;;9.59;100.00;101825.78;5226126;28;20119;-85
2021/12/31 05:20:10;;;;;;;5.70;5.30;;;;;;;8.72;100.00;101690.38;5210560;28;20049;-86
2021/12/31 05:22:41;;;;;;;4.85;4.50;;;;;;;8.59;100.00;101673.53;5210907;28;20025;-86
2021/12/31 05:25:11;;;;;;;6.28;4.65;;;;;;;9.05;100.00;101748.44;5210813;28;20071;-86
2021/12/31 05:27:42;;;;;;;7.38;5.30;;;;;;;9.21;100.00;101774.00;5209264;28;20036;-87
2021/12/31 05:30:12;;;;;;;10.50;5.60;;;;;;;9.47;100.00;101806.03;5210999;28;20021;-87
2021/12/31 05:32:43;;;;;;;5.18;4.88;;;;;;;8.86;100.00;101722.56;5209339;28;20026;-86
2021/12/31 05:35:14;;;;;;;6.38;5.85;;;;;;;8.68;100.00;101699.94;5209919;28;20061;-85
2021/12/31 05:37:45;;;;;;;9.40;4.50;;;;;;;8.66;100.00;101720.06;5210463;28;20108;-86
2021/12/31 05:40:15;;;;;;;7.75;5.18;;;;;;;9.03;100.00;101767.53;5210203;28;20063;-86
2021/12/31 05:42:45;;;;;;;5.15;4.85;;;;;;;9.46;100.00;101809.78;5209004;28;20120;-85
2021/12/31 05:45:16;;;;;;;4.70;4.50;;;;;;;9.38;100.00;101786.63;5208463;28;20052;-85
2021/12/31 05:47:49;;;;;;;8.38;5.68;;;;;;;9.36;100.00;101795.97;5210299;28;20552;-86
2021/12/31 05:50:28;;;;;;;5.88;5.38;;;;;;;9.17;100.00;101767.41;5210474;28;20537;-85
2021/12/31 05:53:00;;;;;;;5.25;4.85;;;;;;;9.14;100.00;101776.75;5209807;28;20063;-87
2021/12/31 05:55:30;;;;;;;4.35;4.05;;;;;;;8.97;100.00;101736.09;5209988;28;20029;-86
2021/12/31 05:58:02;;;;;;;4.25;3.95;;;;;;;8.66;100.00;101685.88;5210024;28;20075;-85
2021/12/31 06:00:32;;;;;;;5.38;4.85;;;;;;;9.26;100.00;101766.03;5209687;28;20017;-86
2021/12/31 06:03:02;;;;;;;10.60;5.35;;;;;;;9.19;100.00;101751.81;5210240;28;20028;-85
2021/12/31 06:05:33;;;;;;;14.60;5.32;;;;;;;8.93;100.00;101696.38;5208412;28;20092;-86
2021/12/31 06:10:40;;;;;;;4.13;3.92;;;;;;;9.41;100.00;101802.34;5233556;28;20056;-62
2021/12/31 06:13:12;;;;;;;5.32;4.30;;;;;;;9.42;100.00;101793.22;5227416;28;20187;-62
2021/12/31 06:15:44;;;;;;;5.72;5.15;;;;;;;9.27;100.00;101773.06;5228014;28;20032;-62
2021/12/31 06:18:15;;;;;;;4.15;3.85;;;;;;;9.37;100.00;101790.38;5244503;28;20438;-63
2021/12/31 06:20:45;;;;;;;8.80;5.28;;;;;;;9.41;100.00;101786.19;5226581;28;20048;-62
2021/12/31 06:23:16;;;;;;;4.18;3.97;;;;;;;9.42;100.00;101787.00;5243574;28;20025;-62
2021/12/31 06:25:46;;;;;;;6.28;4.22;;;;;;;9.37;100.00;101776.88;5225620;28;20495;-63
2021/12/31 06:28:17;;;;;;;4.30;3.95;;;;;;;9.38;100.00;101792.03;5245554;28;20120;-63
2021/12/31 06:30:47;;;;;;;6.15;3.75;;;;;;;9.34;100.00;101788.13;5229811;28;20025;-62
2021/12/31 06:33:18;;;;;;;5.43;4.97;;;;;;;9.30;100.00;101803.09;5229554;28;20029;-63
2021/12/31 06:35:48;;;;;;;4.72;4.43;;;;;;;9.29;100.00;101806.00;5229581;28;20029;-62
2021/12/31 06:38:19;;;;;;;6.43;5.57;;;;;;;9.23;100.00;101796.97;5246365;28;20067;-62
2021/12/31 06:40:49;;;;;;;8.73;5.25;;;;;;;9.21;100.00;101811.72;5229200;28;20021;-63
2021/12/31 06:43:20;;;;;;;4.45;4.20;;;;;;;9.16;100.00;101811.56;5229455;28;20039;-63
2021/12/31 06:45:50;;;;;;;4.07;3.88;;;;;;;9.11;100.00;101823.81;5246159;28;20096;-63
2021/12/31 06:48:20;;;;;;;7.68;5.07;;;;;;;8.88;100.00;101795.88;5228802;28;20390;-63
2021/12/31 06:50:51;;;;;;;4.60;4.18;;;;;;;8.94;100.00;101814.69;5230209;28;20025;-63
2021/12/31 06:53:21;;;;;;;6.07;5.55;;;;;;;8.86;100.00;101797.97;5228327;28;20115;-62
2021/12/31 06:55:52;;;;;;;6.43;5.50;;;;;;;8.94;100.00;101808.47;5228367;28;20035;-63
2021/12/31 06:58:22;;;;;;;6.07;5.32;;;;;;;8.98;100.00;101809.66;5227755;28;20083;-63
2021/12/31 07:00:53;;;;;;;8.77;5.80;;;;;;;8.99;100.00;101806.72;5228019;28;20029;-66
2021/12/31 07:03:23;;;;;;;6.65;5.03;;;;;;;9.02;100.00;101808.97;5228072;28;20021;-66
2021/12/31 07:05:54;;;;;;;4.80;4.28;;;;;;;9.03;100.00;101815.19;5228063;28;20039;-62
2021/12/31 07:08:25;;;;;;;4.65;4.22;;;;;;;9.01;100.00;101815.41;5227744;28;20063;-62
2021/12/31 07:10:55;;;;;;;4.85;3.92;;;;;;;9.01;100.00;101811.91;5227440;28;20020;-63
2021/12/31 07:13:26;;;;;;;4.38;4.18;;;;;;;9.00;100.00;101821.03;5227610;28;20119;-63
2021/12/31 07:15:56;;;;;;;6.53;5.28;;;;;;;9.00;100.00;101821.03;5228482;28;20025;-63
2021/12/31 07:18:27;;;;;;;4.28;4.07;;;;;;;9.02;100.00;101824.31;5227763;28;20021;-63
2021/12/31 07:20:57;;;;;;;6.30;4.28;;;;;;;8.99;100.00;101822.06;5228246;28;20055;-63
2021/12/31 07:23:28;;;;;;;5.57;4.72;;;;;;;9.02;100.00;101829.72;5227540;28;20037;-63
2021/12/31 07:25:58;;;;;;;6.68;5.65;;;;;;;9.03;100.00;101837.56;5228478;28;20492;-63
2021/12/31 07:28:29;;;;;;;8.98;5.43;;;;;;;9.02;100.00;101835.09;5227701;28;20028;-63
2021/12/31 07:31:00;;;;;;;6.85;4.80;;;;;;;9.02;100.00;101829.72;5227627;28;20476;-63
2021/12/31 07:33:30;;;;;;;4.25;4.05;;;;;;;8.98;100.00;101821.25;5227506;28;20037;-63
2021/12/31 07:36:01;;;;;;;4.60;4.20;;;;;;;9.00;100.00;101826.41;5228058;28;20047;-63
2021/12/31 07:38:35;;;;;;;3.95;3.65;;;;;;;8.98;100.00;101832.03;5227774;28;20028;-63
2021/12/31 07:41:06;;;;;;;4.43;4.13;;;;;;;8.93;100.00;101836.44;5227779;28;20485;-63
2021/12/31 07:43:37;;;;;;;8.90;5.40;;;;;;;8.84;100.00;101832.38;5228195;28;20025;-62
2021/12/31 07:46:07;;;;;;;6.45;6.05;;;;;;;8.78;100.00;101839.47;5228094;28;20036;-63
2021/12/31 07:48:38;;;;;;;5.10;4.70;;;;;;;8.74;100.00;101852.53;5228916;28;20488;-63
2021/12/31 07:51:08;;;;;;;5.00;4.68;;;;;;;8.67;100.00;101859.84;5229488;28;20048;-63
2021/12/31 07:53:39;;;;;;;5.75;5.05;;;;;;;8.48;100.00;101846.53;5229303;28;20055;-61
2021/12/31 07:56:10;;;;;;;4.55;4.32;;;;;;;8.62;100.00;101867.78;5227785;28;20465;-62
2021/12/31 07:58:40;;;;;;;5.10;4.28;;;;;;;8.64;100.00;101871.06;5227594;28;20108;-63
2021/12/31 08:01:11;;;;;;;6.68;5.15;;;;;;;8.66;100.00;101868.97;5227794;28;20115;-63
2021/12/31 08:03:41;;;;;;;5.15;4.70;;;;;;;8.68;100.00;101872.25;5227206;28;20021;-62
2021/12/31 08:06:12;;;;;;;4.30;4.07;;;;;;;8.72;100.00;101878.88;5227447;28;20024;-63
2021/12/31 08:08:42;;;;;;;5.22;4.78;;;;;;;8.72;100.00;101857.31;5227621;28;20060;-62
2021/12/31 08:11:13;;;;;;;5.07;4.78;;;;;;;8.81;100.00;101865.97;5227043;28;20028;-62
2021/12/31 08:13:43;;;;;;;4.82;4.53;;;;;;;8.73;100.00;101833.91;5227559;28;20036;-62
2021/12/31 08:16:14;;;;;;;63.65;59.97;;;;;;;8.96;100.00;101879.09;5229733;28;20024;-62
2021/12/31 08:18:44;;;;;;;9.15;8.38;;;;;;;9.00;100.00;101889.19;5229122;28;20032;-62
2021/12/31 08:21:15;;;;;;;7.25;4.47;;;;;;;8.98;100.00;101872.44;5230558;28;20025;-62
2021/12/31 08:23:45;;;;;;;5.82;5.35;;;;;;;8.98;100.00;101858.13;5230454;28;20025;-62
2021/12/31 08:26:17;;;;;;;6.80;5.20;;;;;;;9.10;100.00;101880.63;5230927;28;20033;-62
2021/12/31 08:28:47;;;;;;;7.35;5.18;;;;;;;9.14;100.00;101881.84;5230482;28;20029;-62
2021/12/31 08:31:18;;;;;;;13.68;4.50;;;;;;;9.17;100.00;101875.19;5230145;28;20415;-62
2021/12/31 08:33:48;;;;;;;12.45;4.93;;;;;;;9.17;100.00;101870.63;5230032;28;20049;-65
2021/12/31 08:36:19;;;;;;;6.80;6.18;;;;;;;9.26;100.00;101873.84;5230806;28;20041;-60
2021/12/31 08:38:49;;;;;;;3.80;3.42;;;;;;;9.31;100.00;101860.53;5229128;28;20036;-62
2021/12/31 08:41:20;;;;;;;7.20;5.50;;;;;;;9.26;100.00;101850.41;5229434;28;20028;-62
2021/12/31 08:43:50;;;;;;;5.47;5.18;;;;;;;9.39;100.00;101863.75;5229574;28;20031;-62
2021/12/31 08:46:21;;;;;;;4.90;4.15;;;;;;;9.42;100.00;101852.53;5230574;28;20480;-62
2021/12/31 08:48:52;;;;;;;5.65;4.45;;;;;;;9.45;100.00;101841.31;5230877;28;20021;-62
2021/12/31 08:51:24;;;;;;;7.82;3.50;;;;;;;9.51;100.00;101846.84;5230084;28;20020;-62
2021/12/31 08:53:55;;;;;;;5.25;3.88;;;;;;;9.51;100.00;101831.50;5230754;28;20100;-65
2021/12/31 08:56:26;;;;;;;4.88;4.47;;;;;;;9.66;100.00;101836.50;5230880;28;20064;-62
2021/12/31 08:58:56;;;;;;;5.22;3.72;;;;;;;9.74;100.00;101823.53;5231251;28;20507;-62
2021/12/31 09:01:27;;;;;;;5.40;4.93;;;;;;;9.78;100.00;101818.50;5230200;28;20025;-62
2021/12/31 09:03:57;;;;;;;3.25;3.05;;;;;;;9.85;100.00;101811.13;5229590;28;20044;-62
2021/12/31 09:06:28;;;;;;;4.32;3.65;;;;;;;9.87;100.00;101813.59;5229617;28;20054;-62
2021/12/31 09:08:58;;;;;;;5.22;3.15;;;;;;;10.00;100.00;101843.94;5228251;28;20032;-62
2021/12/31 09:11:29;;;;;;;4.57;4.13;;;;;;;9.93;100.00;101831.59;5228723;28;20021;-62
2021/12/31 09:13:59;;;;;;;2.95;2.85;;;;;;;10.04;100.00;101844.31;5227957;28;20114;-61
2021/12/31 09:16:30;;;;;;;5.63;3.30;;;;;;;10.13;100.00;101881.53;5227519;28;20039;-61
2021/12/31 09:19:00;;;;;;;6.25;4.70;;;;;;;10.18;100.00;101886.25;5226699;28;20438;-62
2021/12/31 09:21:31;;;;;;;4.45;3.20;;;;;;;10.21;100.00;101896.63;5226635;28;20029;-62
2021/12/31 09:24:01;;;;;;;3.17;2.97;;;;;;;10.24;100.00;101898.03;5226923;28;20393;-62
2021/12/31 09:26:32;;;;;;;5.05;4.63;;;;;;;10.26;100.00;101901.34;5226735;28;20033;-62
2021/12/31 09:29:03;;;;;;;3.20;3.00;;;;;;;10.21;100.00;101907.44;5226797;28;20036;-62
2021/12/31 09:31:33;;;;;;;2.70;2.60;;;;;;;10.33;100.00;101894.81;5225886;28;20108;-62
2021/12/31 09:34:04;;;;;;;3.72;3.45;;;;;;;10.42;100.00;101900.69;5227345;28;20037;-62
2021/12/31 09:36:34;;;;;;;5.28;3.53;;;;;;;10.48;100.00;101926.78;5226068;28;20028;-63
2021/12/31 09:39:04;;;;;;;3.00;2.90;;;;;;;10.52;100.00;101897.44;5225408;28;20062;-61
2021/12/31 09:41:35;;;;;;;4.07;3.88;;;;;;;10.52;100.00;101873.13;5225483;28;20440;-62
2021/12/31 09:44:14;;;;;;;3.67;3.38;;;;;;;10.58;100.00;101880.31;5224885;28;20037;-63
2021/12/31 09:46:44;;;;;;;4.10;3.70;;;;;;;10.64;100.00;101876.72;5224871;28;20111;-62
2021/12/31 09:49:14;;;;;;;5.95;4.13;;;;;;;10.67;100.00;101876.25;5225178;28;20144;-62
2021/12/31 09:51:45;;;;;;;3.42;3.13;;;;;;;10.69;100.00;101884.91;5226403;28;20196;-62
2021/12/31 09:54:17;;;;;;;4.25;3.85;;;;;;;10.67;100.00;101928.41;5224749;28;20029;-62
2021/12/31 09:56:48;;;;;;;2.90;2.80;;;;;;;10.71;100.00;101894.44;5224967;28;20508;-63
2021/12/31 09:59:18;;;;;;;3.75;3.38;;;;;;;10.78;100.00;101872.72;5224384;28;20013;-63
2021/12/31 10:01:52;;;;;;;3.20;3.10;;;;;;;10.79;100.00;101899.50;5225077;28;20059;-62
2021/12/31 10:04:22;;;;;;;4.15;3.85;;;;;;;10.83;100.00;101886.38;5228642;28;20033;-62
2021/12/31 10:07:11;;;;;;;3.20;3.08;;;;;;;10.82;100.00;101885.53;5228967;28;20025;-63
2021/12/31 10:09:41;;;;;;;8.15;4.15;;;;;;;10.88;100.00;101885.69;5228801;28;20053;-65
2021/12/31 10:12:12;;;;;;;3.28;3.17;;;;;;;10.92;100.00;101878.75;5229219;28;20138;-63
2021/12/31 10:14:42;;;;;;;5.70;4.35;;;;;;;10.97;100.00;101881.59;5228834;28;20515;-63
2021/12/31 10:17:33;;;;;;;3.58;3.38;;;;;;;11.07;100.00;101873.69;5230955;28;20025;-62
2021/12/31 10:20:05;;;;;;;4.03;2.63;;;;;;;11.00;100.00;101844.06;5229523;28;20064;-62
2021/12/31 10:22:36;;;;;;;2.70;2.60;;;;;;;11.26;100.00;101890.66;5230736;28;20024;-65
2021/12/31 10:25:39;;;;;;;4.72;3.75;;;;;;;11.34;100.00;101887.56;5230254;28;20054;-63
2021/12/31 10:28:12;;;;;;;3.38;3.13;;;;;;;11.20;100.00;101857.25;5215956;28;20028;-62
2021/12/31 10:30:43;;;;;;;3.47;3.20;;;;;;;11.55;100.00;101892.34;5230694;28;20021;-63
2021/12/31 10:33:15;;;;;;;3.30;3.10;;;;;;;11.66;100.00;101901.53;5233248;28;20092;-65
2021/12/31 10:35:47;;;;;;;5.00;3.22;;;;;;;11.70;100.00;101895.41;5234186;28;20092;-61
2021/12/31 10:38:36;;;;;;;3.00;2.85;;;;;;;11.87;100.00;101897.41;5234358;28;20025;-65
2021/12/31 10:41:06;;;;;;;2.75;2.65;;;;;;;11.96;100.00;101894.09;5233616;28;20028;-63
2021/12/31 10:43:37;;;;;;;2.63;2.42;;;;;;;12.02;100.00;101873.34;5233811;28;20029;-63
2021/12/31 10:46:10;;;;;;;2.60;2.50;;;;;;;12.24;100.00;101897.88;5234136;28;20055;-63
2021/12/31 10:48:50;;;;;;;3.20;3.00;;;;;;;12.31;100.00;101899.38;5233351;28;20021;-62
2021/12/31 10:51:59;;;;;;;3.25;3.05;;;;;;;12.38;100.00;101891.94;5233488;28;20029;-65
2021/12/31 10:54:45;;;;;;;2.65;2.47;;;;;;;12.38;100.00;101885.69;5134194;28;20077;-64
2021/12/31 10:57:34;;;;;;;3.70;3.40;;;;;;;12.29;100.00;101862.78;5134302;28;20070;-64
2021/12/31 11:00:08;;;;;;;3.07;2.77;;;;;;;12.27;100.00;101886.56;5210072;28;20098;-61
2021/12/31 11:02:39;;;;;;;5.38;2.95;;;;;;;12.28;100.00;101875.50;5232445;28;20028;-63
2021/12/31 11:05:11;;;;;;;3.60;3.28;;;;;;;12.25;100.00;101884.09;5231272;28;20029;-64
2021/12/31 11:07:42;;;;;;;5.45;3.22;;;;;;;12.20;100.00;101881.28;5231801;28;20389;-63
2021/12/31 11:10:14;;;;;;;3.40;3.10;;;;;;;12.21;100.00;101882.94;5231618;28;20083;-63
2021/12/31 11:12:48;;;;;;;2.40;2.30;;;;;;;12.10;100.00;101892.75;5231895;28;20053;-63
2021/12/31 11:15:19;;;;;;;5.90;3.47;;;;;;;11.95;100.00;101873.50;5231974;28;20031;-64
2021/12/31 11:17:53;;;;;;;5.47;3.67;;;;;;;12.07;100.00;101884.28;5232323;28;20116;-64
2021/12/31 11:20:25;;;;;;;4.70;3.97;;;;;;;12.08;100.00;101878.63;5230165;28;20029;-64
2021/12/31 11:22:55;;;;;;;5.03;3.67;;;;;;;12.14;100.00;101866.81;5230827;28;20489;-63
2021/12/31 11:25:28;;;;;;;2.63;2.42;;;;;;;12.18;100.00;101859.84;5233936;28;20033;-63
2021/12/31 11:27:59;;;;;;;4.30;3.47;;;;;;;12.24;100.00;101854.53;5231360;28;20025;-63
2021/12/31 11:30:34;;;;;;;3.28;3.08;;;;;;;12.25;100.00;101845.34;5229866;28;20013;-62
2021/12/31 11:33:08;;;;;;;3.22;2.92;;;;;;;12.24;100.00;101852.66;5229696;28;20033;-63
2021/12/31 11:35:43;;;;;;;3.75;3.45;;;;;;;12.17;100.00;101833.03;5231499;28;20029;-63
2021/12/31 11:38:15;;;;;;;3.83;2.40;;;;;;;12.25;100.00;101823.69;5231530;28;20092;-63
2021/12/31 11:40:50;;;;;;;3.65;3.35;;;;;;;12.27;100.00;101832.41;5232152;28;20029;-63
2021/12/31 11:43:29;;;;;;;5.63;3.33;;;;;;;12.29;100.00;101839.22;5233348;28;20025;-64
2021/12/31 11:46:09;;;;;;;4.03;3.63;;;;;;;12.25;100.00;101831.81;5232263;28;20029;-62